sensor_id;sensor_type;location;lat;lon;timestamp;temperature;humidity
68943;DHT22;60852;52.190;4.422;2022-09-27T00:00:21;13.73;64.19
68943;DHT22;60852;52.190;4.422;2022-09-27T00:02:46;13.75;64.08
68943;DHT22;60852;52.190;4.422;2022-09-27T00:05:12;13.80;63.99
68943;DHT22;60852;52.190;4.422;2022-09-27T00:07:38;13.80;64.15
68943;DHT22;60852;52.190;4.422;2022-09-27T00:10:03;13.87;64.57
68943;DHT22;60852;52.190;4.422;2022-09-27T00:12:29;13.86;64.62
68943;DHT22;60852;52.190;4.422;2022-09-27T00:14:54;13.83;67.15
68943;DHT22;60852;52.190;4.422;2022-09-27T00:17:20;13.68;67.53
68943;DHT22;60852;52.190;4.422;2022-09-27T00:19:45;13.59;67.59
68943;DHT22;60852;52.190;4.422;2022-09-27T00:22:11;13.42;68.71
68943;DHT22;60852;52.190;4.422;2022-09-27T00:24:36;13.32;69.75
68943;DHT22;60852;52.190;4.422;2022-09-27T00:27:02;13.25;68.62
68943;DHT22;60852;52.190;4.422;2022-09-27T00:29:27;13.29;68.26
68943;DHT22;60852;52.190;4.422;2022-09-27T00:31:53;13.34;68.77
68943;DHT22;60852;52.190;4.422;2022-09-27T00:34:24;13.38;68.48
68943;DHT22;60852;52.190;4.422;2022-09-27T00:36:51;13.37;66.79
68943;DHT22;60852;52.190;4.422;2022-09-27T00:39:17;13.41;67.06
68943;DHT22;60852;52.190;4.422;2022-09-27T00:41:43;13.51;67.16
68943;DHT22;60852;52.190;4.422;2022-09-27T00:47:13;13.54;62.33
68943;DHT22;60852;52.190;4.422;2022-09-27T00:52:35;13.65;62.85
68943;DHT22;60852;52.190;4.422;2022-09-27T00:55:16;13.70;63.47
68943;DHT22;60852;52.190;4.422;2022-09-27T00:57:45;13.73;62.62
68943;DHT22;60852;52.190;4.422;2022-09-27T01:00:13;13.70;62.08
68943;DHT22;60852;52.190;4.422;2022-09-27T01:02:43;13.69;61.96
68943;DHT22;60852;52.190;4.422;2022-09-27T01:05:12;13.69;61.52
68943;DHT22;60852;52.190;4.422;2022-09-27T01:07:39;13.73;62.51
68943;DHT22;60852;52.190;4.422;2022-09-27T01:10:06;13.72;64.52
68943;DHT22;60852;52.190;4.422;2022-09-27T01:13:04;13.70;65.14
68943;DHT22;60852;52.190;4.422;2022-09-27T01:20:45;13.59;63.91
68943;DHT22;60852;52.190;4.422;2022-09-27T01:32:01;13.72;63.64
68943;DHT22;60852;52.190;4.422;2022-09-27T01:37:35;13.69;60.81
68943;DHT22;60852;52.190;4.422;2022-09-27T01:42:57;13.75;60.78
68943;DHT22;60852;52.190;4.422;2022-09-27T01:45:33;13.83;61.61
68943;DHT22;60852;52.190;4.422;2022-09-27T01:48:09;13.77;61.10
68943;DHT22;60852;52.190;4.422;2022-09-27T01:50:41;13.86;61.15
68943;DHT22;60852;52.190;4.422;2022-09-27T01:53:16;13.85;61.18
68943;DHT22;60852;52.190;4.422;2022-09-27T01:55:44;13.87;60.93
68943;DHT22;60852;52.190;4.422;2022-09-27T01:58:13;13.87;61.22
68943;DHT22;60852;52.190;4.422;2022-09-27T02:00:46;13.80;65.36
68943;DHT22;60852;52.190;4.422;2022-09-27T02:03:20;13.61;66.48
68943;DHT22;60852;52.190;4.422;2022-09-27T02:05:54;13.42;67.24
68943;DHT22;60852;52.190;4.422;2022-09-27T02:08:35;12.66;68.60
68943;DHT22;60852;52.190;4.422;2022-09-27T02:11:09;11.87;70.64
68943;DHT22;60852;52.190;4.422;2022-09-27T02:13:49;11.24;74.85
68943;DHT22;60852;52.190;4.422;2022-09-27T02:16:49;11.18;78.02
68943;DHT22;60852;52.190;4.422;2022-09-27T02:30:13;11.94;75.14
68943;DHT22;60852;52.190;4.422;2022-09-27T02:32:40;12.08;75.43
68943;DHT22;60852;52.190;4.422;2022-09-27T02:35:17;12.11;75.91
68943;DHT22;60852;52.190;4.422;2022-09-27T02:37:44;12.22;75.96
68943;DHT22;60852;52.190;4.422;2022-09-27T02:40:10;12.22;74.29
68943;DHT22;60852;52.190;4.422;2022-09-27T02:42:37;12.28;74.55
68943;DHT22;60852;52.190;4.422;2022-09-27T02:45:04;12.32;75.28
68943;DHT22;60852;52.190;4.422;2022-09-27T02:47:59;12.33;74.70
68943;DHT22;60852;52.190;4.422;2022-09-27T02:59:01;12.59;70.95
68943;DHT22;60852;52.190;4.422;2022-09-27T03:06:47;12.79;67.16
68943;DHT22;60852;52.190;4.422;2022-09-27T03:09:22;12.83;64.84
68943;DHT22;60852;52.190;4.422;2022-09-27T03:11:47;12.96;66.01
68943;DHT22;60852;52.190;4.422;2022-09-27T03:14:13;12.98;68.15
68943;DHT22;60852;52.190;4.422;2022-09-27T03:16:39;13.07;70.90
68943;DHT22;60852;52.190;4.422;2022-09-27T03:19:04;13.01;71.52
68943;DHT22;60852;52.190;4.422;2022-09-27T03:21:30;13.04;71.36
68943;DHT22;60852;52.190;4.422;2022-09-27T03:23:55;13.01;69.23
68943;DHT22;60852;52.190;4.422;2022-09-27T03:26:21;12.94;67.54
68943;DHT22;60852;52.190;4.422;2022-09-27T03:28:46;13.01;68.33
68943;DHT22;60852;52.190;4.422;2022-09-27T03:31:12;12.94;68.22
68943;DHT22;60852;52.190;4.422;2022-09-27T03:33:37;13.03;68.23
68943;DHT22;60852;52.190;4.422;2022-09-27T03:36:02;13.00;67.48
68943;DHT22;60852;52.190;4.422;2022-09-27T03:38:28;13.11;68.88
68943;DHT22;60852;52.190;4.422;2022-09-27T03:40:54;13.12;68.87
68943;DHT22;60852;52.190;4.422;2022-09-27T03:43:19;13.08;68.55
68943;DHT22;60852;52.190;4.422;2022-09-27T03:45:45;12.94;66.60
68943;DHT22;60852;52.190;4.422;2022-09-27T03:48:11;12.88;67.00
68943;DHT22;60852;52.190;4.422;2022-09-27T03:50:37;12.96;68.40
68943;DHT22;60852;52.190;4.422;2022-09-27T03:53:03;12.96;69.29
68943;DHT22;60852;52.190;4.422;2022-09-27T03:55:28;13.00;68.44
68943;DHT22;60852;52.190;4.422;2022-09-27T03:57:53;13.07;68.97
68943;DHT22;60852;52.190;4.422;2022-09-27T04:00:20;13.07;68.91
68943;DHT22;60852;52.190;4.422;2022-09-27T04:02:45;13.04;65.89
68943;DHT22;60852;52.190;4.422;2022-09-27T04:05:11;13.04;64.75
68943;DHT22;60852;52.190;4.422;2022-09-27T04:07:36;13.01;64.84
68943;DHT22;60852;52.190;4.422;2022-09-27T04:10:03;13.04;65.15
68943;DHT22;60852;52.190;4.422;2022-09-27T04:12:29;13.03;65.41
68943;DHT22;60852;52.190;4.422;2022-09-27T04:14:54;13.07;65.40
68943;DHT22;60852;52.190;4.422;2022-09-27T04:17:20;13.08;66.17
68943;DHT22;60852;52.190;4.422;2022-09-27T04:19:45;13.08;67.15
68943;DHT22;60852;52.190;4.422;2022-09-27T04:22:10;13.14;67.46
68943;DHT22;60852;52.190;4.422;2022-09-27T04:24:38;13.12;66.43
68943;DHT22;60852;52.190;4.422;2022-09-27T04:27:03;13.10;65.91
68943;DHT22;60852;52.190;4.422;2022-09-27T04:29:29;13.12;65.91
68943;DHT22;60852;52.190;4.422;2022-09-27T04:31:54;13.21;65.59
68943;DHT22;60852;52.190;4.422;2022-09-27T04:34:20;13.22;64.80
68943;DHT22;60852;52.190;4.422;2022-09-27T04:37:05;13.21;66.51
68943;DHT22;60852;52.190;4.422;2022-09-27T04:39:32;13.22;67.16
68943;DHT22;60852;52.190;4.422;2022-09-27T04:41:57;13.12;65.73
68943;DHT22;60852;52.190;4.422;2022-09-27T04:44:23;13.08;66.70
68943;DHT22;60852;52.190;4.422;2022-09-27T04:46:48;13.01;66.43
68943;DHT22;60852;52.190;4.422;2022-09-27T04:49:14;13.06;67.11
68943;DHT22;60852;52.190;4.422;2022-09-27T04:51:39;13.04;66.30
68943;DHT22;60852;52.190;4.422;2022-09-27T04:54:05;13.03;65.59
68943;DHT22;60852;52.190;4.422;2022-09-27T04:56:30;13.04;66.18
68943;DHT22;60852;52.190;4.422;2022-09-27T04:58:56;12.96;70.50
68943;DHT22;60852;52.190;4.422;2022-09-27T05:01:22;12.81;73.65
68943;DHT22;60852;52.190;4.422;2022-09-27T05:03:48;12.57;72.28
68943;DHT22;60852;52.190;4.422;2022-09-27T05:06:14;12.48;72.79
68943;DHT22;60852;52.190;4.422;2022-09-27T05:08:39;12.40;71.62
68943;DHT22;60852;52.190;4.422;2022-09-27T05:11:05;12.28;69.56
68943;DHT22;60852;52.190;4.422;2022-09-27T05:13:30;12.38;70.35
68943;DHT22;60852;52.190;4.422;2022-09-27T05:16:01;12.39;68.57
68943;DHT22;60852;52.190;4.422;2022-09-27T05:18:27;12.49;69.11
68943;DHT22;60852;52.190;4.422;2022-09-27T05:20:52;12.50;70.98
68943;DHT22;60852;52.190;4.422;2022-09-27T05:23:18;12.59;71.92
68943;DHT22;60852;52.190;4.422;2022-09-27T05:25:44;12.60;72.31
68943;DHT22;60852;52.190;4.422;2022-09-27T05:28:09;12.64;70.83
68943;DHT22;60852;52.190;4.422;2022-09-27T05:30:35;12.67;68.94
68943;DHT22;60852;52.190;4.422;2022-09-27T05:33:00;12.72;66.80
68943;DHT22;60852;52.190;4.422;2022-09-27T05:35:26;12.79;67.28
68943;DHT22;60852;52.190;4.422;2022-09-27T05:37:57;12.76;66.48
68943;DHT22;60852;52.190;4.422;2022-09-27T05:40:23;12.75;64.95
68943;DHT22;60852;52.190;4.422;2022-09-27T05:42:51;12.80;66.11
68943;DHT22;60852;52.190;4.422;2022-09-27T05:45:17;12.86;66.56
68943;DHT22;60852;52.190;4.422;2022-09-27T05:47:42;12.87;64.63
68943;DHT22;60852;52.190;4.422;2022-09-27T05:50:08;12.88;64.04
68943;DHT22;60852;52.190;4.422;2022-09-27T05:52:34;12.91;63.12
68943;DHT22;60852;52.190;4.422;2022-09-27T05:54:59;12.90;63.47
68943;DHT22;60852;52.190;4.422;2022-09-27T05:57:25;12.97;64.59
68943;DHT22;60852;52.190;4.422;2022-09-27T05:59:50;13.01;65.01
68943;DHT22;60852;52.190;4.422;2022-09-27T06:02:16;13.07;65.09
68943;DHT22;60852;52.190;4.422;2022-09-27T06:04:42;13.18;65.89
68943;DHT22;60852;52.190;4.422;2022-09-27T06:07:08;13.21;66.74
68943;DHT22;60852;52.190;4.422;2022-09-27T06:09:34;13.15;67.01
68943;DHT22;60852;52.190;4.422;2022-09-27T06:12:00;13.01;68.25
68943;DHT22;60852;52.190;4.422;2022-09-27T06:14:25;12.97;69.52
68943;DHT22;60852;52.190;4.422;2022-09-27T06:16:52;13.03;69.92
68943;DHT22;60852;52.190;4.422;2022-09-27T06:19:19;13.10;70.36
68943;DHT22;60852;52.190;4.422;2022-09-27T06:21:48;13.12;70.36
68943;DHT22;60852;52.190;4.422;2022-09-27T06:24:15;13.07;70.97
68943;DHT22;60852;52.190;4.422;2022-09-27T06:26:40;13.06;71.65
68943;DHT22;60852;52.190;4.422;2022-09-27T06:29:06;13.04;71.87
68943;DHT22;60852;52.190;4.422;2022-09-27T06:31:32;13.08;71.91
68943;DHT22;60852;52.190;4.422;2022-09-27T06:33:57;13.14;72.41
68943;DHT22;60852;52.190;4.422;2022-09-27T06:36:23;13.11;73.22
68943;DHT22;60852;52.190;4.422;2022-09-27T06:38:48;13.11;73.27
68943;DHT22;60852;52.190;4.422;2022-09-27T06:41:14;13.03;73.43
68943;DHT22;60852;52.190;4.422;2022-09-27T06:43:40;12.98;72.89
68943;DHT22;60852;52.190;4.422;2022-09-27T06:46:05;12.83;73.16
68943;DHT22;60852;52.190;4.422;2022-09-27T06:48:32;12.72;74.05
68943;DHT22;60852;52.190;4.422;2022-09-27T06:50:58;12.70;74.20
68943;DHT22;60852;52.190;4.422;2022-09-27T06:53:25;12.61;74.25
68943;DHT22;60852;52.190;4.422;2022-09-27T06:55:51;12.49;73.88
68943;DHT22;60852;52.190;4.422;2022-09-27T06:58:17;12.29;73.83
68943;DHT22;60852;52.190;4.422;2022-09-27T07:01:02;11.90;75.69
68943;DHT22;60852;52.190;4.422;2022-09-27T07:03:28;11.77;77.00
68943;DHT22;60852;52.190;4.422;2022-09-27T07:06:01;11.71;79.33
68943;DHT22;60852;52.190;4.422;2022-09-27T07:08:28;11.59;80.18
68943;DHT22;60852;52.190;4.422;2022-09-27T07:10:55;11.67;79.85
68943;DHT22;60852;52.190;4.422;2022-09-27T07:13:25;11.60;79.46
68943;DHT22;60852;52.190;4.422;2022-09-27T07:15:54;11.66;79.10
68943;DHT22;60852;52.190;4.422;2022-09-27T07:18:19;11.77;78.89
68943;DHT22;60852;52.190;4.422;2022-09-27T07:20:45;11.80;78.14
68943;DHT22;60852;52.190;4.422;2022-09-27T07:23:13;11.81;77.94
68943;DHT22;60852;52.190;4.422;2022-09-27T07:25:38;11.85;77.85
68943;DHT22;60852;52.190;4.422;2022-09-27T07:28:06;11.97;78.09
68943;DHT22;60852;52.190;4.422;2022-09-27T07:30:33;12.15;78.10
68943;DHT22;60852;52.190;4.422;2022-09-27T07:33:01;12.25;77.86
68943;DHT22;60852;52.190;4.422;2022-09-27T07:35:27;12.39;77.47
68943;DHT22;60852;52.190;4.422;2022-09-27T07:37:54;12.48;77.25
68943;DHT22;60852;52.190;4.422;2022-09-27T07:40:20;12.49;77.32
68943;DHT22;60852;52.190;4.422;2022-09-27T07:42:46;12.50;77.24
68943;DHT22;60852;52.190;4.422;2022-09-27T07:45:12;12.43;76.35
68943;DHT22;60852;52.190;4.422;2022-09-27T07:47:40;12.38;76.10
68943;DHT22;60852;52.190;4.422;2022-09-27T07:50:08;12.42;75.81
68943;DHT22;60852;52.190;4.422;2022-09-27T07:52:41;12.35;74.90
68943;DHT22;60852;52.190;4.422;2022-09-27T07:55:08;12.17;75.73
68943;DHT22;60852;52.190;4.422;2022-09-27T07:57:36;12.04;76.94
68943;DHT22;60852;52.190;4.422;2022-09-27T08:00:06;11.98;77.64
68943;DHT22;60852;52.190;4.422;2022-09-27T08:02:31;12.01;78.10
68943;DHT22;60852;52.190;4.422;2022-09-27T08:05:00;11.94;77.13
68943;DHT22;60852;52.190;4.422;2022-09-27T08:07:27;11.99;77.42
68943;DHT22;60852;52.190;4.422;2022-09-27T08:09:53;12.01;75.81
68943;DHT22;60852;52.190;4.422;2022-09-27T08:12:19;12.05;76.43
68943;DHT22;60852;52.190;4.422;2022-09-27T08:14:47;12.12;77.50
68943;DHT22;60852;52.190;4.422;2022-09-27T08:17:14;12.22;77.09
68943;DHT22;60852;52.190;4.422;2022-09-27T08:19:40;12.17;75.50
68943;DHT22;60852;52.190;4.422;2022-09-27T08:22:07;12.18;75.40
68943;DHT22;60852;52.190;4.422;2022-09-27T08:24:33;12.25;74.88
68943;DHT22;60852;52.190;4.422;2022-09-27T08:26:59;12.25;73.80
68943;DHT22;60852;52.190;4.422;2022-09-27T08:29:24;12.39;73.14
68943;DHT22;60852;52.190;4.422;2022-09-27T08:31:50;12.46;71.75
68943;DHT22;60852;52.190;4.422;2022-09-27T08:34:16;12.60;71.92
68943;DHT22;60852;52.190;4.422;2022-09-27T08:36:42;12.66;71.00
68943;DHT22;60852;52.190;4.422;2022-09-27T08:39:08;12.80;71.00
68943;DHT22;60852;52.190;4.422;2022-09-27T08:41:37;12.94;70.81
68943;DHT22;60852;52.190;4.422;2022-09-27T08:50:07;13.19;70.02
68943;DHT22;60852;52.190;4.422;2022-09-27T08:52:43;13.15;69.94
68943;DHT22;60852;52.190;4.422;2022-09-27T08:57:53;13.01;71.54
68943;DHT22;60852;52.190;4.422;2022-09-27T09:00:20;13.04;71.40
68943;DHT22;60852;52.190;4.422;2022-09-27T09:02:46;13.10;70.01
68943;DHT22;60852;52.190;4.422;2022-09-27T09:05:30;13.15;72.00
68943;DHT22;60852;52.190;4.422;2022-09-27T09:10:50;13.08;69.83
68943;DHT22;60852;52.190;4.422;2022-09-27T09:24:48;12.53;71.70
68943;DHT22;60852;52.190;4.422;2022-09-27T09:35:23;12.22;73.89
68943;DHT22;60852;52.190;4.422;2022-09-27T09:37:57;12.22;74.00
68943;DHT22;60852;52.190;4.422;2022-09-27T09:43:13;12.39;74.81
68943;DHT22;60852;52.190;4.422;2022-09-27T09:45:45;12.48;74.69
68943;DHT22;60852;52.190;4.422;2022-09-27T09:48:43;12.59;75.42
68943;DHT22;60852;52.190;4.422;2022-09-27T09:51:16;12.66;75.11
68943;DHT22;60852;52.190;4.422;2022-09-27T09:54:03;12.61;74.70
68943;DHT22;60852;52.190;4.422;2022-09-27T09:56:37;12.60;74.29
68943;DHT22;60852;52.190;4.422;2022-09-27T09:59:25;12.67;74.89
68943;DHT22;60852;52.190;4.422;2022-09-27T10:01:57;12.73;76.24
68943;DHT22;60852;52.190;4.422;2022-09-27T10:04:28;12.77;75.15
68943;DHT22;60852;52.190;4.422;2022-09-27T10:06:56;12.67;73.33
68943;DHT22;60852;52.190;4.422;2022-09-27T10:09:26;12.61;74.71
68943;DHT22;60852;52.190;4.422;2022-09-27T10:11:52;12.59;74.57
68943;DHT22;60852;52.190;4.422;2022-09-27T10:14:20;12.50;73.19
68943;DHT22;60852;52.190;4.422;2022-09-27T10:16:49;12.46;74.93
68943;DHT22;60852;52.190;4.422;2022-09-27T10:19:31;12.49;76.80
68943;DHT22;60852;52.190;4.422;2022-09-27T10:22:09;12.55;77.00
68943;DHT22;60852;52.190;4.422;2022-09-27T10:24:54;12.40;77.25
68943;DHT22;60852;52.190;4.422;2022-09-27T10:27:20;12.38;78.25
68943;DHT22;60852;52.190;4.422;2022-09-27T10:29:55;12.40;78.93
68943;DHT22;60852;52.190;4.422;2022-09-27T10:32:28;12.39;78.89
68943;DHT22;60852;52.190;4.422;2022-09-27T10:37:46;12.42;78.99
68943;DHT22;60852;52.190;4.422;2022-09-27T10:40:29;12.43;78.99
68943;DHT22;60852;52.190;4.422;2022-09-27T10:42:55;12.49;79.26
68943;DHT22;60852;52.190;4.422;2022-09-27T10:47:53;12.38;77.28
68943;DHT22;60852;52.190;4.422;2022-09-27T10:50:29;12.12;74.28
68943;DHT22;60852;52.190;4.422;2022-09-27T10:53:18;11.85;75.24
68943;DHT22;60852;52.190;4.422;2022-09-27T10:55:50;11.64;75.11
68943;DHT22;60852;52.190;4.422;2022-09-27T10:58:36;11.43;75.27
68943;DHT22;60852;52.190;4.422;2022-09-27T11:01:06;11.39;75.07
68943;DHT22;60852;52.190;4.422;2022-09-27T11:03:38;11.43;75.38
68943;DHT22;60852;52.190;4.422;2022-09-27T11:08:53;11.57;76.32
68943;DHT22;60852;52.190;4.422;2022-09-27T11:11:23;11.71;76.73
68943;DHT22;60852;52.190;4.422;2022-09-27T11:25:19;12.76;74.16
68943;DHT22;60852;52.190;4.422;2022-09-27T11:30:50;13.06;70.91
68943;DHT22;60852;52.190;4.422;2022-09-27T11:38:57;13.34;69.18
68943;DHT22;60852;52.190;4.422;2022-09-27T11:41:39;13.48;68.37
68943;DHT22;60852;52.190;4.422;2022-09-27T11:49:48;13.68;68.07
68943;DHT22;60852;52.190;4.422;2022-09-27T12:03:51;13.96;64.82
68943;DHT22;60852;52.190;4.422;2022-09-27T12:06:39;14.16;63.71
68943;DHT22;60852;52.190;4.422;2022-09-27T12:09:15;14.17;65.32
68943;DHT22;60852;52.190;4.422;2022-09-27T12:17:01;14.27;62.08
68943;DHT22;60852;52.190;4.422;2022-09-27T12:19:33;14.36;62.57
68943;DHT22;60852;52.190;4.422;2022-09-27T12:22:04;14.40;62.10
68943;DHT22;60852;52.190;4.422;2022-09-27T12:24:32;14.49;62.79
68943;DHT22;60852;52.190;4.422;2022-09-27T12:27:15;14.58;62.47
68943;DHT22;60852;52.190;4.422;2022-09-27T12:29:45;14.58;62.04
68943;DHT22;60852;52.190;4.422;2022-09-27T12:32:16;14.61;60.51
68943;DHT22;60852;52.190;4.422;2022-09-27T12:35:02;14.67;60.28
68943;DHT22;60852;52.190;4.422;2022-09-27T12:37:59;14.65;59.62
68943;DHT22;60852;52.190;4.422;2022-09-27T12:40:34;14.61;59.15
68943;DHT22;60852;52.190;4.422;2022-09-27T12:43:10;14.49;59.95
68943;DHT22;60852;52.190;4.422;2022-09-27T12:48:55;14.44;59.93
68943;DHT22;60852;52.190;4.422;2022-09-27T12:51:35;14.41;61.20
68943;DHT22;60852;52.190;4.422;2022-09-27T12:54:13;14.33;60.94
68943;DHT22;60852;52.190;4.422;2022-09-27T12:57:01;14.21;61.49
68943;DHT22;60852;52.190;4.422;2022-09-27T13:05:58;14.16;62.50
68943;DHT22;60852;52.190;4.422;2022-09-27T13:14:02;14.14;63.63
68943;DHT22;60852;52.190;4.422;2022-09-27T13:16:30;14.28;61.51
68943;DHT22;60852;52.190;4.422;2022-09-27T13:18:59;14.26;59.26
68943;DHT22;60852;52.190;4.422;2022-09-27T13:26:54;14.41;58.18
68943;DHT22;60852;52.190;4.422;2022-09-27T13:29:26;14.38;56.58
68943;DHT22;60852;52.190;4.422;2022-09-27T13:37:45;14.49;58.59
68943;DHT22;60852;52.190;4.422;2022-09-27T13:45:26;14.34;59.30
68943;DHT22;60852;52.190;4.422;2022-09-27T13:47:54;14.37;58.19
68943;DHT22;60852;52.190;4.422;2022-09-27T13:50:30;14.34;58.98
68943;DHT22;60852;52.190;4.422;2022-09-27T13:53:22;14.47;60.08
68943;DHT22;60852;52.190;4.422;2022-09-27T13:55:50;14.63;60.65
68943;DHT22;60852;52.190;4.422;2022-09-27T13:58:31;14.65;59.64
68943;DHT22;60852;52.190;4.422;2022-09-27T14:01:11;14.55;57.89
68943;DHT22;60852;52.190;4.422;2022-09-27T14:03:43;14.54;60.01
68943;DHT22;60852;52.190;4.422;2022-09-27T14:06:16;14.52;59.46
68943;DHT22;60852;52.190;4.422;2022-09-27T14:08:47;14.55;60.27
68943;DHT22;60852;52.190;4.422;2022-09-27T14:11:23;14.42;58.26
68943;DHT22;60852;52.190;4.422;2022-09-27T14:13:51;14.37;59.36
68943;DHT22;60852;52.190;4.422;2022-09-27T14:16:18;14.38;60.76
68943;DHT22;60852;52.190;4.422;2022-09-27T14:18:49;14.38;58.59
68943;DHT22;60852;52.190;4.422;2022-09-27T14:21:27;14.26;58.84
68943;DHT22;60852;52.190;4.422;2022-09-27T14:24:42;14.30;58.83
68943;DHT22;60852;52.190;4.422;2022-09-27T14:29:46;14.40;57.21
68943;DHT22;60852;52.190;4.422;2022-09-27T14:32:15;14.36;57.43
68943;DHT22;60852;52.190;4.422;2022-09-27T14:34:41;14.30;59.20
68943;DHT22;60852;52.190;4.422;2022-09-27T14:37:23;14.28;59.62
68943;DHT22;60852;52.190;4.422;2022-09-27T14:40:00;14.30;58.88
68943;DHT22;60852;52.190;4.422;2022-09-27T14:42:35;14.20;59.48
68943;DHT22;60852;52.190;4.422;2022-09-27T14:47:51;14.05;57.58
68943;DHT22;60852;52.190;4.422;2022-09-27T14:50:19;14.05;58.76
68943;DHT22;60852;52.190;4.422;2022-09-27T14:52:45;14.02;59.32
68943;DHT22;60852;52.190;4.422;2022-09-27T14:55:15;13.96;59.25
68943;DHT22;60852;52.190;4.422;2022-09-27T14:57:54;13.89;64.73
68943;DHT22;60852;52.190;4.422;2022-09-27T15:02:53;13.37;70.78
68943;DHT22;60852;52.190;4.422;2022-09-27T15:05:40;13.14;72.65
68943;DHT22;60852;52.190;4.422;2022-09-27T15:08:06;13.04;72.99
68943;DHT22;60852;52.190;4.422;2022-09-27T15:10:34;12.93;72.80
68943;DHT22;60852;52.190;4.422;2022-09-27T15:13:03;12.93;72.80
68943;DHT22;60852;52.190;4.422;2022-09-27T15:15:35;12.87;72.62
68943;DHT22;60852;52.190;4.422;2022-09-27T15:18:02;12.90;72.40
68943;DHT22;60852;52.190;4.422;2022-09-27T15:20:53;12.80;73.45
68943;DHT22;60852;52.190;4.422;2022-09-27T15:23:28;12.63;72.54
68943;DHT22;60852;52.190;4.422;2022-09-27T15:26:34;12.66;73.40
68943;DHT22;60852;52.190;4.422;2022-09-27T15:29:01;12.73;73.50
68943;DHT22;60852;52.190;4.422;2022-09-27T15:31:34;12.79;74.00
68943;DHT22;60852;52.190;4.422;2022-09-27T15:34:02;12.77;73.80
68943;DHT22;60852;52.190;4.422;2022-09-27T15:36:55;12.83;73.37
68943;DHT22;60852;52.190;4.422;2022-09-27T15:39:37;12.86;72.95
68943;DHT22;60852;52.190;4.422;2022-09-27T15:44:48;13.01;73.52
68943;DHT22;60852;52.190;4.422;2022-09-27T15:52:44;12.98;72.30
68943;DHT22;60852;52.190;4.422;2022-09-27T15:55:12;13.06;72.67
68943;DHT22;60852;52.190;4.422;2022-09-27T15:57:38;13.14;71.94
68943;DHT22;60852;52.190;4.422;2022-09-27T16:00:05;13.12;71.55
68943;DHT22;60852;52.190;4.422;2022-09-27T16:02:31;13.08;70.89
68943;DHT22;60852;52.190;4.422;2022-09-27T16:04:56;13.08;70.37
68943;DHT22;60852;52.190;4.422;2022-09-27T16:07:22;13.12;70.61
68943;DHT22;60852;52.190;4.422;2022-09-27T16:09:47;13.08;70.95
68943;DHT22;60852;52.190;4.422;2022-09-27T16:12:16;13.01;71.12
68943;DHT22;60852;52.190;4.422;2022-09-27T16:14:41;12.98;70.15
68943;DHT22;60852;52.190;4.422;2022-09-27T16:17:08;13.01;70.16
68943;DHT22;60852;52.190;4.422;2022-09-27T16:19:34;13.01;70.78
68943;DHT22;60852;52.190;4.422;2022-09-27T16:22:00;13.06;70.60
68943;DHT22;60852;52.190;4.422;2022-09-27T16:24:28;13.06;70.47
68943;DHT22;60852;52.190;4.422;2022-09-27T16:26:54;13.03;70.72
68943;DHT22;60852;52.190;4.422;2022-09-27T16:29:19;13.04;71.65
68943;DHT22;60852;52.190;4.422;2022-09-27T16:31:45;13.04;71.85
68943;DHT22;60852;52.190;4.422;2022-09-27T16:34:11;13.01;71.08
68943;DHT22;60852;52.190;4.422;2022-09-27T16:36:38;13.08;71.58
68943;DHT22;60852;52.190;4.422;2022-09-27T16:39:10;13.10;70.51
68943;DHT22;60852;52.190;4.422;2022-09-27T16:41:37;13.07;68.94
68943;DHT22;60852;52.190;4.422;2022-09-27T16:44:11;13.00;69.40
68943;DHT22;60852;52.190;4.422;2022-09-27T16:46:41;13.04;69.93
68943;DHT22;60852;52.190;4.422;2022-09-27T16:49:07;13.11;70.16
68943;DHT22;60852;52.190;4.422;2022-09-27T16:51:57;13.08;68.83
68943;DHT22;60852;52.190;4.422;2022-09-27T16:54:26;13.06;68.19
68943;DHT22;60852;52.190;4.422;2022-09-27T16:56:54;13.01;68.69
68943;DHT22;60852;52.190;4.422;2022-09-27T16:59:20;13.08;68.80
68943;DHT22;60852;52.190;4.422;2022-09-27T17:01:48;13.11;69.67
68943;DHT22;60852;52.190;4.422;2022-09-27T17:04:14;13.10;68.01
68943;DHT22;60852;52.190;4.422;2022-09-27T17:06:39;13.08;68.56
68943;DHT22;60852;52.190;4.422;2022-09-27T17:09:05;13.11;68.38
68943;DHT22;60852;52.190;4.422;2022-09-27T17:11:31;13.08;68.15
68943;DHT22;60852;52.190;4.422;2022-09-27T17:13:57;13.14;68.24
68943;DHT22;60852;52.190;4.422;2022-09-27T17:16:23;13.21;68.60
68943;DHT22;60852;52.190;4.422;2022-09-27T17:18:49;13.28;68.95
68943;DHT22;60852;52.190;4.422;2022-09-27T17:21:15;13.34;69.15
68943;DHT22;60852;52.190;4.422;2022-09-27T17:23:40;13.34;70.12
68943;DHT22;60852;52.190;4.422;2022-09-27T17:26:13;13.31;67.42
68943;DHT22;60852;52.190;4.422;2022-09-27T17:28:38;13.14;64.10
68943;DHT22;60852;52.190;4.422;2022-09-27T17:31:06;13.06;66.17
68943;DHT22;60852;52.190;4.422;2022-09-27T17:33:36;13.07;66.35
68943;DHT22;60852;52.190;4.422;2022-09-27T17:36:06;13.06;66.62
68943;DHT22;60852;52.190;4.422;2022-09-27T17:38:33;13.08;66.69
68943;DHT22;60852;52.190;4.422;2022-09-27T17:41:04;13.11;66.69
68943;DHT22;60852;52.190;4.422;2022-09-27T17:43:30;13.12;65.44
68943;DHT22;60852;52.190;4.422;2022-09-27T17:46:07;13.03;65.24
68943;DHT22;60852;52.190;4.422;2022-09-27T17:48:34;13.07;66.02
68943;DHT22;60852;52.190;4.422;2022-09-27T17:51:18;13.15;66.08
68943;DHT22;60852;52.190;4.422;2022-09-27T17:53:44;13.22;64.88
68943;DHT22;60852;52.190;4.422;2022-09-27T17:56:11;13.21;65.30
68943;DHT22;60852;52.190;4.422;2022-09-27T17:58:37;13.21;63.95
68943;DHT22;60852;52.190;4.422;2022-09-27T18:01:05;13.28;63.69
68943;DHT22;60852;52.190;4.422;2022-09-27T18:03:32;13.25;64.60
68943;DHT22;60852;52.190;4.422;2022-09-27T18:05:58;13.22;64.10
68943;DHT22;60852;52.190;4.422;2022-09-27T18:08:27;13.07;63.31
68943;DHT22;60852;52.190;4.422;2022-09-27T18:10:54;13.06;64.04
68943;DHT22;60852;52.190;4.422;2022-09-27T18:13:20;13.08;64.08
68943;DHT22;60852;52.190;4.422;2022-09-27T18:15:55;13.08;66.87
68943;DHT22;60852;52.190;4.422;2022-09-27T18:18:22;13.10;67.71
68943;DHT22;60852;52.190;4.422;2022-09-27T18:20:49;12.98;68.06
68943;DHT22;60852;52.190;4.422;2022-09-27T18:23:14;12.88;68.86
68943;DHT22;60852;52.190;4.422;2022-09-27T18:25:40;12.72;68.09
68943;DHT22;60852;52.190;4.422;2022-09-27T18:28:05;12.70;67.81
68943;DHT22;60852;52.190;4.422;2022-09-27T18:30:34;12.61;67.32
68943;DHT22;60852;52.190;4.422;2022-09-27T18:32:59;12.60;67.06
68943;DHT22;60852;52.190;4.422;2022-09-27T18:35:24;12.48;68.83
68943;DHT22;60852;52.190;4.422;2022-09-27T18:37:52;12.36;69.94
68943;DHT22;60852;52.190;4.422;2022-09-27T18:40:18;12.21;68.85
68943;DHT22;60852;52.190;4.422;2022-09-27T18:42:43;12.18;69.66
68943;DHT22;60852;52.190;4.422;2022-09-27T18:45:09;12.17;70.17
68943;DHT22;60852;52.190;4.422;2022-09-27T18:47:35;12.24;70.05